首页
METAR-TAF:

METAR-TAF

机场 :

布良斯克, 俄罗斯

纬度: 53-15N, 经度: 034-19E, 海拔: 217米

当前天气观测

该预报发布于58分钟前的02:00 UTC
风速12节,风向西转西南
温度 0°C
湿度 80%
气压 1024 hPa
能见度10公里或以上
阴天层高于1500英尺

METAR: UUBP 210200Z 25006MPS 9999 OVC015 00/M03 Q1024 R34/190060 NOSIG RMK QFE750/1000

时间: 05:58 (02:58 UTC)

预报

该预报发布于13小时和11分钟前的13:47 UTC
预报有效从20日的 15点(UTC)到 20日的 24点(UTC)
风速12节,风向西,有时为23节阵风
能见度10公里或以上
阴天层高于1100英尺
短暂存在
从 20日的 15点(UTC)到 20日的 18点(UTC)
能見度: 3100
多云层高于600英尺
多云层高于1500英尺, 积雨云.
小阵雪, 轻雾

TAF: UUBP 201347Z 2015/2024 28006G12MPS 9999 OVC011 TEMPO 2015/2018 3100 -SHSN BR BKN006 BKN015CB

超过4000个机场的气象观测和天气预报(METAR&TAF报告)。

可查询的气象台以黄色和红色小点在地图上表示。

将鼠标移到小点上方,可查看气象台名称。

然后点击查看天气观测和预报。

如需切换地图:点击带黑十字的绿色按钮放大地图;点击带横线的绿色按钮缩小地图;或者点击绿色箭头查看邻近地区的地图。


METAR-TAF: